Time;durP1;ratioP1;P1;durP2;ratioP2;P2;SDS_P1;SDS_P2;PMS_P1;PMS_P2;Temp;Humidity;BMP_temperature;BMP_pressure;BME280_temperature;BME280_humidity;BME280_pressure;Samples;Min_cycle;Max_cycle;Signal;HPM_P1;HPM_P2
2023/06/23 00:02:00;;;;;;;17.90;16.10;;;17.30;99.90;;;;;;4979920;28;20988;-73
2023/06/23 00:04:27;;;;;;;16.20;14.50;;;17.30;99.90;;;;;;4984197;28;20520;-75
2023/06/23 00:06:54;;;;;;;15.80;14.10;;;17.30;99.90;;;;;;4988893;28;20830;-73
2023/06/23 00:09:22;;;;;;;14.80;11.53;;;17.30;99.90;;;;;;4981765;28;20462;-73
2023/06/23 00:11:49;;;;;;;12.37;11.20;;;17.10;99.90;;;;;;4985046;28;20519;-74
2023/06/23 00:14:17;;;;;;;11.40;10.30;;;17.00;99.90;;;;;;4976734;28;20474;-73
2023/06/23 00:16:44;;;;;;;13.07;11.77;;;17.00;99.90;;;;;;4981354;28;20579;-73
2023/06/23 00:19:11;;;;;;;12.32;11.07;;;17.00;99.90;;;;;;4981937;28;20538;-74
2023/06/23 00:21:38;;;;;;;12.68;11.43;;;17.00;99.90;;;;;;4982018;28;20223;-75
2023/06/23 00:24:05;;;;;;;13.73;12.32;;;17.00;99.90;;;;;;4976442;28;20237;-74
2023/06/23 00:26:33;;;;;;;14.43;13.02;;;17.00;99.90;;;;;;4978824;28;20667;-74
2023/06/23 00:29:00;;;;;;;15.07;13.57;;;17.10;99.90;;;;;;4983997;28;20197;-73
2023/06/23 00:31:28;;;;;;;15.67;14.07;;;17.10;99.90;;;;;;4979932;28;20456;-74
2023/06/23 00:33:55;;;;;;;14.97;13.43;;;17.20;99.90;;;;;;4982694;28;20470;-73
2023/06/23 00:36:24;;;;;;;18.35;15.45;;;17.20;99.90;;;;;;4979381;28;20563;-73
2023/06/23 00:38:51;;;;;;;20.02;18.08;;;17.30;99.90;;;;;;4978980;28;20219;-72
2023/06/23 00:41:18;;;;;;;18.65;15.57;;;17.20;99.90;;;;;;4985198;28;20225;-73
2023/06/23 00:43:49;;;;;;;17.50;13.68;;;17.30;99.90;;;;;;4983611;28;20315;-72
2023/06/23 00:46:20;;;;;;;21.40;17.20;;;17.30;99.90;;;;;;4981243;28;20704;-71
2023/06/23 00:48:49;;;;;;;20.00;14.53;;;17.20;99.90;;;;;;4982649;28;20557;-70
2023/06/23 00:51:17;;;;;;;15.17;13.70;;;17.30;99.90;;;;;;4984849;28;20459;-73
2023/06/23 00:53:46;;;;;;;20.65;15.60;;;17.30;99.90;;;;;;4980946;28;20497;-71
2023/06/23 00:56:14;;;;;;;17.33;13.40;;;17.30;99.90;;;;;;4987980;28;20208;-73
2023/06/23 00:58:42;;;;;;;21.03;16.20;;;17.30;99.90;;;;;;4980824;28;20208;-70
2023/06/23 01:01:09;;;;;;;20.80;16.90;;;17.30;99.90;;;;;;4978381;28;21252;-72
2023/06/23 01:03:36;;;;;;;22.30;16.63;;;17.30;99.90;;;;;;4982950;28;20523;-71
2023/06/23 01:06:10;;;;;;;23.00;15.20;;;17.30;99.90;;;;;;4982773;28;20554;-71
2023/06/23 01:08:43;;;;;;;24.67;15.93;;;17.30;99.90;;;;;;4984339;28;20463;-72
2023/06/23 01:11:16;;;;;;;31.00;18.00;;;17.20;99.90;;;;;;4982731;28;20455;-71
2023/06/23 01:13:50;;;;;;;22.23;15.90;;;17.20;99.90;;;;;;4986881;28;20474;-73
2023/06/23 01:16:21;;;;;;;21.27;14.53;;;17.10;99.90;;;;;;4983608;28;20449;-72
2023/06/23 01:18:54;;;;;;;18.45;14.20;;;17.20;99.90;;;;;;4988041;28;20825;-72
2023/06/23 01:21:34;;;;;;;17.13;13.10;;;17.20;99.90;;;;;;4981115;28;20205;-71
2023/06/23 01:24:12;;;;;;;17.70;13.03;;;17.10;99.90;;;;;;4984578;28;20246;-71
2023/06/23 01:26:50;;;;;;;14.97;13.50;;;17.20;99.90;;;;;;4982473;28;20527;-71
2023/06/23 01:29:22;;;;;;;14.93;13.43;;;17.20;99.90;;;;;;4978859;28;20444;-72
2023/06/23 01:31:56;;;;;;;16.40;12.37;;;17.20;99.90;;;;;;4979679;28;20468;-70
2023/06/23 01:34:29;;;;;;;15.30;12.23;;;17.10;99.90;;;;;;4983881;28;20468;-70
2023/06/23 01:37:01;;;;;;;16.23;13.10;;;17.10;99.90;;;;;;4982756;28;20466;-71
2023/06/23 01:39:31;;;;;;;13.00;11.30;;;17.10;99.90;;;;;;4982696;28;20452;-70
2023/06/23 01:42:00;;;;;;;15.07;13.20;;;17.10;99.90;;;;;;4986929;28;20456;-70
2023/06/23 01:44:32;;;;;;;16.27;12.70;;;17.10;99.90;;;;;;4981206;28;20511;-71
2023/06/23 01:47:03;;;;;;;17.95;13.05;;;17.10;99.90;;;;;;4981468;28;20450;-73
2023/06/23 01:49:36;;;;;;;16.55;11.52;;;17.10;99.90;;;;;;4977557;28;20345;-72
2023/06/23 01:52:06;;;;;;;14.82;12.90;;;17.10;99.90;;;;;;4986328;28;20213;-71
2023/06/23 01:54:37;;;;;;;14.52;13.00;;;17.10;99.90;;;;;;4990296;28;20247;-71
2023/06/23 01:57:06;;;;;;;14.20;12.73;;;17.10;99.90;;;;;;4981258;28;20224;-72
2023/06/23 01:59:38;;;;;;;21.17;12.70;;;17.10;99.90;;;;;;4983484;28;20451;-73
2023/06/23 02:02:07;;;;;;;22.73;14.73;;;17.10;99.90;;;;;;4980714;28;20474;-71
2023/06/23 02:04:36;;;;;;;19.80;14.53;;;17.10;99.90;;;;;;4985204;28;20551;-71
2023/06/23 02:07:04;;;;;;;20.67;13.97;;;17.10;99.90;;;;;;4982431;28;20458;-71
2023/06/23 02:09:32;;;;;;;21.10;13.73;;;17.10;99.90;;;;;;4979499;28;20456;-71
2023/06/23 02:12:03;;;;;;;21.03;13.77;;;17.10;99.90;;;;;;4980686;28;20449;-72
2023/06/23 02:14:32;;;;;;;16.23;12.90;;;17.10;99.90;;;;;;4983547;28;20535;-71
2023/06/23 02:17:03;;;;;;;13.87;12.03;;;17.20;99.90;;;;;;4981346;28;20466;-71
2023/06/23 02:19:31;;;;;;;19.20;14.60;;;17.10;99.90;;;;;;4983846;28;20454;-71
2023/06/23 02:21:59;;;;;;;15.10;13.50;;;17.10;99.90;;;;;;4984580;28;20456;-71
2023/06/23 02:24:27;;;;;;;18.07;14.90;;;17.10;99.90;;;;;;4981603;28;20604;-72
2023/06/23 02:26:55;;;;;;;16.30;13.13;;;17.10;99.90;;;;;;4986375;28;20498;-73
2023/06/23 02:29:22;;;;;;;17.90;12.73;;;17.10;99.90;;;;;;4982634;28;20476;-72
2023/06/23 02:31:50;;;;;;;13.53;12.20;;;17.10;99.90;;;;;;4984198;28;20215;-72
2023/06/23 02:34:18;;;;;;;11.60;10.48;;;17.20;99.90;;;;;;4985510;28;20473;-72
2023/06/23 02:36:48;;;;;;;13.20;11.80;;;17.10;99.90;;;;;;4982267;28;20206;-73
2023/06/23 02:39:19;;;;;;;12.50;10.30;;;17.10;99.90;;;;;;4982751;28;20522;-71
2023/06/23 02:41:50;;;;;;;14.80;9.70;;;17.10;99.90;;;;;;4980528;28;20443;-71
2023/06/23 02:44:23;;;;;;;11.03;9.93;;;17.10;99.90;;;;;;4976062;28;20582;-71
2023/06/23 02:46:56;;;;;;;11.20;10.10;;;17.10;99.90;;;;;;4981450;28;20480;-71
2023/06/23 02:49:28;;;;;;;13.40;9.87;;;17.20;99.90;;;;;;4978508;28;20793;-71
2023/06/23 02:51:59;;;;;;;10.03;9.13;;;17.20;99.90;;;;;;4982601;28;20946;-70
2023/06/23 02:54:31;;;;;;;12.90;9.93;;;17.30;99.90;;;;;;4982574;28;20972;-71
2023/06/23 02:57:00;;;;;;;11.30;10.20;;;17.20;99.90;;;;;;4975746;28;20460;-70
2023/06/23 02:59:30;;;;;;;11.23;10.13;;;17.30;99.90;;;;;;4978223;28;20934;-73
2023/06/23 03:02:00;;;;;;;12.63;11.23;;;17.30;99.90;;;;;;4981395;28;20456;-72
2023/06/23 03:04:30;;;;;;;10.70;9.70;;;17.40;99.90;;;;;;4982170;28;20489;-71
2023/06/23 03:06:57;;;;;;;9.97;9.07;;;17.40;99.90;;;;;;4980412;28;20507;-72
2023/06/23 03:09:25;;;;;;;10.40;9.33;;;17.40;99.90;;;;;;4972658;28;20467;-72
2023/06/23 03:11:52;;;;;;;11.13;10.03;;;17.50;99.90;;;;;;4982436;28;20451;-71
2023/06/23 03:14:19;;;;;;;9.13;8.27;;;17.50;99.90;;;;;;4982767;28;20462;-72
2023/06/23 03:16:49;;;;;;;9.37;8.47;;;17.50;99.90;;;;;;4983717;28;20481;-71
2023/06/23 03:19:25;;;;;;;9.37;8.50;;;17.60;99.90;;;;;;4980236;28;20449;-71
2023/06/23 03:21:59;;;;;;;9.40;8.50;;;17.60;99.90;;;;;;4980183;28;20443;-71
2023/06/23 03:24:30;;;;;;;12.13;9.73;;;17.50;99.90;;;;;;4980594;28;20907;-70
2023/06/23 03:26:59;;;;;;;10.77;9.47;;;17.50;99.90;;;;;;4982269;28;20983;-72
2023/06/23 03:29:29;;;;;;;11.17;10.10;;;17.50;99.90;;;;;;4983900;28;20472;-71
2023/06/23 03:32:02;;;;;;;11.20;10.10;;;17.60;99.90;;;;;;4980325;28;20458;-69
2023/06/23 03:34:49;;;;;;;11.00;9.90;;;17.50;99.90;;;;;;4978001;28;20548;-71
2023/06/23 03:37:20;;;;;;;10.87;9.77;;;17.50;99.90;;;;;;4984891;28;20275;-72
2023/06/23 03:39:52;;;;;;;11.00;10.00;;;17.60;99.90;;;;;;4976167;28;20563;-71
2023/06/23 03:42:19;;;;;;;12.57;11.13;;;17.60;99.90;;;;;;4979717;28;20445;-71
2023/06/23 03:44:48;;;;;;;11.20;10.07;;;17.60;99.90;;;;;;4985168;28;20498;-71
2023/06/23 03:47:19;;;;;;;10.73;9.07;;;17.60;99.90;;;;;;4969401;28;20453;-70
2023/06/23 03:49:51;;;;;;;12.80;11.40;;;17.60;99.90;;;;;;4986097;28;20473;-71
2023/06/23 03:52:19;;;;;;;11.93;10.73;;;17.60;99.90;;;;;;4986926;28;20440;-71
2023/06/23 03:54:48;;;;;;;11.77;10.57;;;17.60;99.90;;;;;;4982947;28;20475;-70
2023/06/23 03:57:19;;;;;;;13.17;11.87;;;17.60;99.90;;;;;;4973789;28;20453;-70
2023/06/23 03:59:49;;;;;;;10.47;8.87;;;17.60;99.90;;;;;;4980417;28;20456;-71
2023/06/23 04:02:17;;;;;;;14.90;10.00;;;17.70;99.90;;;;;;4976453;28;20455;-72
2023/06/23 04:04:45;;;;;;;9.93;9.00;;;17.70;99.90;;;;;;4976809;28;20478;-70
2023/06/23 04:07:13;;;;;;;12.00;10.10;;;17.70;99.90;;;;;;4978268;28;20459;-71
2023/06/23 04:09:45;;;;;;;15.03;11.00;;;17.70;99.90;;;;;;4981341;28;20534;-71
2023/06/23 04:12:14;;;;;;;11.17;10.07;;;17.70;99.90;;;;;;4980978;28;20452;-70
2023/06/23 04:14:46;;;;;;;16.80;10.33;;;17.70;99.90;;;;;;4984506;28;20817;-71
2023/06/23 04:17:16;;;;;;;10.53;9.50;;;17.70;99.90;;;;;;4972761;28;20507;-71
2023/06/23 04:19:45;;;;;;;11.93;10.63;;;17.80;99.90;;;;;;4982148;28;20455;-72
2023/06/23 04:22:17;;;;;;;10.17;9.17;;;17.80;99.90;;;;;;4987138;28;20480;-70
2023/06/23 04:24:46;;;;;;;13.27;10.87;;;17.90;99.90;;;;;;4983753;28;20489;-70
2023/06/23 04:27:16;;;;;;;14.10;11.90;;;17.90;99.90;;;;;;4988070;28;20454;-70
2023/06/23 04:29:45;;;;;;;11.23;10.03;;;17.90;99.90;;;;;;4986785;28;20471;-70
2023/06/23 04:32:14;;;;;;;11.47;10.27;;;18.00;99.90;;;;;;4991215;28;20445;-70
2023/06/23 04:34:41;;;;;;;11.20;9.60;;;18.00;99.90;;;;;;4987054;28;20527;-71
2023/06/23 04:37:14;;;;;;;10.47;9.10;;;18.00;99.90;;;;;;4987813;28;20449;-70
2023/06/23 04:39:48;;;;;;;12.83;11.40;;;18.10;99.90;;;;;;4988277;28;20467;-70
2023/06/23 04:42:19;;;;;;;12.40;11.20;;;18.00;99.90;;;;;;4990201;28;20562;-71
2023/06/23 04:44:52;;;;;;;14.97;10.67;;;18.10;99.90;;;;;;4988152;28;20695;-71
2023/06/23 04:47:23;;;;;;;11.33;9.87;;;18.10;99.90;;;;;;4990994;28;20451;-72
2023/06/23 04:49:57;;;;;;;14.10;10.17;;;18.10;99.90;;;;;;4980011;28;20537;-70
2023/06/23 04:52:24;;;;;;;11.80;10.60;;;18.10;99.90;;;;;;4984468;28;21066;-70
2023/06/23 04:54:58;;;;;;;13.10;10.70;;;18.10;99.90;;;;;;4983636;28;20457;-70
2023/06/23 04:57:30;;;;;;;13.80;11.27;;;18.20;99.90;;;;;;4988160;28;20487;-73
2023/06/23 05:00:03;;;;;;;11.97;10.30;;;18.10;99.90;;;;;;4982102;28;20808;-71
2023/06/23 05:02:32;;;;;;;11.80;9.87;;;18.20;99.90;;;;;;4984487;28;20876;-71
2023/06/23 05:05:00;;;;;;;11.97;9.53;;;18.20;99.90;;;;;;4985811;28;20488;-71
2023/06/23 05:07:29;;;;;;;13.40;10.70;;;18.20;99.90;;;;;;4984879;28;20512;-70
2023/06/23 05:10:00;;;;;;;10.43;9.40;;;18.20;99.90;;;;;;4990396;28;20448;-72
2023/06/23 05:12:29;;;;;;;12.53;10.60;;;18.20;99.90;;;;;;4989432;28;21018;-72
2023/06/23 05:14:58;;;;;;;10.90;9.80;;;18.30;99.90;;;;;;4988313;28;20468;-72
2023/06/23 05:17:27;;;;;;;11.10;9.33;;;18.30;99.90;;;;;;4982320;28;20515;-72
2023/06/23 05:19:56;;;;;;;9.87;8.87;;;18.30;99.90;;;;;;4984379;28;20452;-72
2023/06/23 05:22:26;;;;;;;13.80;10.20;;;18.40;99.90;;;;;;4986538;28;20442;-72
2023/06/23 05:24:58;;;;;;;11.63;10.53;;;18.40;99.90;;;;;;4989243;28;20453;-72
2023/06/23 05:27:28;;;;;;;12.07;10.83;;;18.40;99.90;;;;;;4987309;28;20459;-71
2023/06/23 05:29:58;;;;;;;11.43;10.33;;;18.40;99.90;;;;;;4985593;28;21152;-74
2023/06/23 05:32:28;;;;;;;11.20;10.10;;;18.40;99.90;;;;;;4989671;28;20468;-70
2023/06/23 05:34:59;;;;;;;12.73;9.40;;;18.40;99.90;;;;;;4980662;28;20508;-71
2023/06/23 05:37:28;;;;;;;10.43;9.33;;;18.40;99.90;;;;;;4985291;28;20877;-72
2023/06/23 05:39:57;;;;;;;10.03;9.03;;;18.50;99.90;;;;;;4983384;28;20441;-74
2023/06/23 05:42:27;;;;;;;9.63;8.23;;;18.50;99.90;;;;;;4984534;28;20556;-72
2023/06/23 05:44:54;;;;;;;11.73;9.37;;;18.50;99.90;;;;;;4987024;28;20445;-72
2023/06/23 05:47:24;;;;;;;15.10;9.90;;;18.50;99.90;;;;;;4989959;28;20469;-73
2023/06/23 05:49:56;;;;;;;14.23;8.60;;;18.60;99.90;;;;;;4985278;28;20469;-72
2023/06/23 05:52:23;;;;;;;9.93;9.03;;;18.60;99.90;;;;;;4983222;28;20512;-73
2023/06/23 05:54:55;;;;;;;14.97;8.87;;;18.60;99.90;;;;;;4984055;28;20528;-72
2023/06/23 05:57:26;;;;;;;10.20;8.40;;;18.60;99.90;;;;;;4982083;28;20955;-72
2023/06/23 06:00:04;;;;;;;11.00;9.40;;;18.60;99.90;;;;;;4985481;28;20537;-73
2023/06/23 06:02:34;;;;;;;12.73;10.70;;;18.70;99.90;;;;;;4980244;28;20479;-72
2023/06/23 06:05:05;;;;;;;13.40;9.77;;;18.70;99.90;;;;;;4979269;28;20499;-70
2023/06/23 06:07:33;;;;;;;16.30;12.77;;;18.70;99.90;;;;;;4981915;28;20458;-71
2023/06/23 06:10:02;;;;;;;16.90;11.00;;;18.70;99.90;;;;;;4981035;28;20449;-71
2023/06/23 06:12:30;;;;;;;13.93;11.70;;;18.70;99.90;;;;;;4982566;28;20976;-72
2023/06/23 06:14:59;;;;;;;14.73;12.50;;;18.80;99.90;;;;;;4988492;28;20463;-71
2023/06/23 06:17:29;;;;;;;13.10;10.67;;;18.80;99.90;;;;;;4980593;28;20459;-71
2023/06/23 06:19:59;;;;;;;12.93;11.60;;;18.80;99.90;;;;;;4987906;28;20452;-72
2023/06/23 06:22:27;;;;;;;14.77;12.30;;;18.80;99.90;;;;;;4978319;28;20504;-72
2023/06/23 06:24:56;;;;;;;17.37;11.87;;;18.80;99.90;;;;;;4985250;28;20455;-71
2023/06/23 06:27:26;;;;;;;13.80;12.40;;;18.80;99.90;;;;;;4983062;28;20440;-70
2023/06/23 06:29:56;;;;;;;15.10;12.47;;;18.80;99.90;;;;;;4980367;28;20881;-72
2023/06/23 06:32:29;;;;;;;11.50;10.37;;;18.90;99.90;;;;;;4983771;28;20444;-72
2023/06/23 06:35:01;;;;;;;12.90;11.57;;;18.90;99.90;;;;;;4977802;28;20466;-72
2023/06/23 06:37:30;;;;;;;13.50;12.20;;;18.90;99.90;;;;;;4975213;28;20446;-72
2023/06/23 06:39:57;;;;;;;13.73;12.17;;;18.90;99.90;;;;;;4983721;28;20467;-72
2023/06/23 06:42:24;;;;;;;14.30;12.80;;;18.90;99.90;;;;;;4980755;28;20466;-71
2023/06/23 06:44:51;;;;;;;14.67;12.40;;;19.00;99.90;;;;;;4977684;28;20449;-71
2023/06/23 06:47:21;;;;;;;14.50;12.27;;;19.00;99.90;;;;;;4980948;28;20489;-72
2023/06/23 06:49:51;;;;;;;14.33;11.80;;;19.00;99.90;;;;;;4980203;28;20459;-71
2023/06/23 06:52:18;;;;;;;15.40;11.60;;;19.10;99.90;;;;;;4986009;28;20455;-71
2023/06/23 06:54:46;;;;;;;14.90;13.40;;;19.10;99.90;;;;;;4982391;28;20446;-71
2023/06/23 06:57:14;;;;;;;15.90;13.63;;;19.10;99.90;;;;;;4984570;28;20795;-71
2023/06/23 06:59:41;;;;;;;15.70;14.20;;;19.10;99.90;;;;;;4976877;28;20473;-71
2023/06/23 07:02:09;;;;;;;16.67;13.77;;;19.10;99.90;;;;;;4981595;28;20458;-73
2023/06/23 07:04:37;;;;;;;16.73;14.80;;;19.20;99.90;;;;;;4988415;28;20444;-72
2023/06/23 07:07:06;;;;;;;16.93;15.03;;;19.20;99.90;;;;;;4981144;28;20844;-72
2023/06/23 07:09:33;;;;;;;16.63;13.43;;;19.20;99.90;;;;;;4983203;28;20478;-72
2023/06/23 07:12:00;;;;;;;15.53;13.97;;;19.20;99.90;;;;;;4979028;28;20459;-74
2023/06/23 07:14:27;;;;;;;16.23;14.60;;;19.20;99.90;;;;;;4982761;28;20482;-72
2023/06/23 07:16:54;;;;;;;16.37;14.67;;;19.20;99.90;;;;;;4980818;28;20836;-71
2023/06/23 07:19:21;;;;;;;17.80;16.10;;;19.20;99.90;;;;;;4980549;28;20455;-71
2023/06/23 07:21:47;;;;;;;17.10;14.73;;;19.20;99.90;;;;;;4983631;28;20538;-74
2023/06/23 07:24:17;;;;;;;20.33;14.80;;;19.20;99.90;;;;;;4980942;28;20464;-72
2023/06/23 07:26:44;;;;;;;16.60;14.33;;;19.30;99.90;;;;;;4985230;28;20549;-72
2023/06/23 07:29:10;;;;;;;15.40;13.20;;;19.30;99.90;;;;;;4980631;28;20452;-72
2023/06/23 07:31:38;;;;;;;13.77;12.37;;;19.20;99.90;;;;;;4979121;28;20473;-72
2023/06/23 07:34:05;;;;;;;12.60;11.33;;;19.30;99.90;;;;;;4976575;28;20519;-72
2023/06/23 07:36:32;;;;;;;14.87;11.73;;;19.30;99.90;;;;;;4981068;28;20456;-71
2023/06/23 07:38:59;;;;;;;12.37;11.17;;;19.40;99.90;;;;;;4981784;28;20538;-71
2023/06/23 07:41:27;;;;;;;14.23;12.83;;;19.40;99.90;;;;;;4977648;28;20488;-70
2023/06/23 07:43:54;;;;;;;15.17;12.57;;;19.50;99.90;;;;;;4989153;28;20526;-70
2023/06/23 07:46:21;;;;;;;15.53;12.03;;;19.50;99.90;;;;;;4979328;28;20556;-71
2023/06/23 07:48:48;;;;;;;12.50;11.30;;;19.60;99.90;;;;;;4986708;28;20484;-71
2023/06/23 07:51:15;;;;;;;13.93;12.63;;;19.60;99.90;;;;;;4978372;28;20482;-71
2023/06/23 07:53:42;;;;;;;12.80;11.33;;;19.60;99.90;;;;;;4984205;28;20501;-70
2023/06/23 07:56:12;;;;;;;14.90;12.40;;;19.60;99.90;;;;;;4990205;28;20905;-72
2023/06/23 07:58:41;;;;;;;14.73;12.73;;;19.70;99.90;;;;;;4978497;28;20444;-71
2023/06/23 08:01:08;;;;;;;13.80;11.93;;;19.80;99.90;;;;;;4983024;28;20444;-71
2023/06/23 08:03:35;;;;;;;14.30;11.60;;;19.80;99.90;;;;;;4981805;28;20496;-71
2023/06/23 08:06:02;;;;;;;13.60;12.20;;;19.80;99.90;;;;;;4977497;28;20569;-71
2023/06/23 08:08:28;;;;;;;13.57;12.10;;;19.90;99.90;;;;;;4976850;28;21800;-70
2023/06/23 08:10:55;;;;;;;12.43;11.17;;;20.00;99.90;;;;;;4977320;28;20454;-71
2023/06/23 08:13:22;;;;;;;13.90;12.50;;;20.00;99.90;;;;;;4978346;28;20586;-72
2023/06/23 08:15:50;;;;;;;15.70;12.47;;;20.10;99.90;;;;;;4980945;28;20462;-71
2023/06/23 08:18:17;;;;;;;12.53;11.33;;;20.20;99.90;;;;;;4978541;28;20454;-71
2023/06/23 08:20:46;;;;;;;11.57;10.03;;;20.20;99.90;;;;;;4981820;28;20536;-72
2023/06/23 08:23:13;;;;;;;14.50;12.43;;;20.30;99.90;;;;;;4974365;28;20795;-73
2023/06/23 08:25:40;;;;;;;12.40;10.30;;;20.30;99.90;;;;;;4983864;28;20978;-72
2023/06/23 08:28:07;;;;;;;12.13;10.83;;;20.30;99.90;;;;;;4979029;28;20470;-70
2023/06/23 08:30:34;;;;;;;12.53;9.70;;;20.30;99.90;;;;;;4980899;28;20439;-70
2023/06/23 08:33:02;;;;;;;11.70;10.50;;;20.40;99.90;;;;;;4979541;28;20492;-73
2023/06/23 08:35:29;;;;;;;10.70;8.47;;;20.40;99.90;;;;;;4983157;28;20906;-73
2023/06/23 08:37:56;;;;;;;13.07;10.47;;;20.40;99.90;;;;;;4980589;28;20533;-72
2023/06/23 08:40:23;;;;;;;10.50;9.40;;;20.40;99.90;;;;;;4975385;28;20459;-73
2023/06/23 08:42:50;;;;;;;11.17;8.60;;;20.50;99.90;;;;;;4982605;28;20969;-72
2023/06/23 08:45:20;;;;;;;8.47;7.77;;;20.60;99.90;;;;;;4980698;28;20955;-72
2023/06/23 08:47:48;;;;;;;9.80;8.50;;;20.70;99.90;;;;;;4983255;28;20473;-72
2023/06/23 08:50:17;;;;;;;12.73;11.03;;;20.70;99.90;;;;;;4974325;28;20462;-71
2023/06/23 08:52:44;;;;;;;10.13;9.20;;;20.70;99.90;;;;;;4979109;28;20646;-72
2023/06/23 08:55:11;;;;;;;15.30;10.47;;;20.80;99.90;;;;;;4976804;28;20455;-71
2023/06/23 08:57:38;;;;;;;12.10;10.90;;;20.80;99.90;;;;;;4970801;28;20445;-72
2023/06/23 09:00:07;;;;;;;12.30;11.10;;;20.80;99.90;;;;;;4984040;28;20510;-72
2023/06/23 09:02:34;;;;;;;12.63;11.40;;;20.80;99.90;;;;;;4977096;28;20934;-71
2023/06/23 09:05:01;;;;;;;14.43;12.73;;;20.80;99.90;;;;;;4978539;28;20994;-71
2023/06/23 09:07:29;;;;;;;14.77;13.27;;;20.80;99.90;;;;;;4977486;28;20483;-72
2023/06/23 09:09:56;;;;;;;15.50;13.47;;;20.90;99.90;;;;;;4977587;28;20976;-72
2023/06/23 09:12:25;;;;;;;14.93;12.30;;;20.90;99.90;;;;;;4981951;28;20468;-71
2023/06/23 09:14:52;;;;;;;14.20;12.77;;;20.90;99.90;;;;;;4985225;28;20459;-71
2023/06/23 09:17:19;;;;;;;15.27;13.83;;;21.00;99.90;;;;;;4982440;28;20546;-72
2023/06/23 09:19:49;;;;;;;17.30;13.20;;;21.00;99.90;;;;;;4986671;28;20888;-73
2023/06/23 09:22:19;;;;;;;16.13;14.57;;;21.00;99.90;;;;;;4980676;28;20787;-71
2023/06/23 09:24:49;;;;;;;14.10;12.67;;;21.10;99.90;;;;;;4983224;28;20461;-72
2023/06/23 09:27:16;;;;;;;19.30;14.83;;;21.00;99.90;;;;;;4984987;28;20490;-73
2023/06/23 09:29:43;;;;;;;15.80;14.10;;;21.00;99.90;;;;;;4979178;28;21257;-73
2023/06/23 09:32:10;;;;;;;16.13;14.30;;;21.00;99.90;;;;;;4978182;28;20471;-72
2023/06/23 09:34:38;;;;;;;17.00;15.20;;;21.00;99.90;;;;;;4985136;28;20544;-72
2023/06/23 09:37:07;;;;;;;16.03;14.33;;;20.90;99.90;;;;;;4982066;28;20460;-72
2023/06/23 09:39:35;;;;;;;15.23;13.80;;;20.90;99.90;;;;;;4988280;28;20445;-72
2023/06/23 09:42:08;;;;;;;15.13;13.53;;;20.90;99.90;;;;;;4985312;28;20502;-72
2023/06/23 09:44:37;;;;;;;18.60;16.73;;;20.80;99.90;;;;;;4981968;28;20505;-72
2023/06/23 09:47:05;;;;;;;15.07;13.60;;;20.80;99.90;;;;;;4980108;28;20717;-71
2023/06/23 09:49:39;;;;;;;15.50;14.03;;;20.70;99.90;;;;;;4977224;28;20459;-72
2023/06/23 09:52:08;;;;;;;17.20;12.53;;;20.80;99.90;;;;;;4979888;28;20456;-72
2023/06/23 09:54:36;;;;;;;16.93;13.67;;;20.80;99.90;;;;;;4979382;28;20931;-74
2023/06/23 09:57:06;;;;;;;18.17;14.73;;;20.80;99.90;;;;;;4976104;28;20460;-74
2023/06/23 09:59:34;;;;;;;16.90;14.10;;;20.90;99.90;;;;;;4984771;28;20446;-72
2023/06/23 10:02:01;;;;;;;16.40;14.33;;;20.80;99.90;;;;;;4982234;28;20522;-71
2023/06/23 10:04:31;;;;;;;16.70;13.37;;;20.80;99.90;;;;;;4984591;28;20469;-72
2023/06/23 10:06:58;;;;;;;16.63;13.97;;;21.00;99.90;;;;;;4979182;28;20480;-72
2023/06/23 10:09:26;;;;;;;15.00;13.00;;;21.10;99.90;;;;;;4983043;28;20448;-72
2023/06/23 10:11:53;;;;;;;16.67;12.27;;;21.10;99.90;;;;;;4981943;28;20857;-72
2023/06/23 10:14:23;;;;;;;15.17;13.63;;;21.20;99.90;;;;;;4983334;28;20511;-72
2023/06/23 10:16:57;;;;;;;15.93;12.10;;;21.30;99.90;;;;;;4982982;28;20460;-73
2023/06/23 10:19:24;;;;;;;14.33;12.73;;;21.50;99.90;;;;;;4975384;28;20970;-71
2023/06/23 10:21:52;;;;;;;15.30;9.93;;;21.80;99.90;;;;;;4986551;28;20985;-71
2023/06/23 10:24:21;;;;;;;16.20;10.90;;;22.40;99.90;;;;;;4978413;28;20950;-71
2023/06/23 10:26:51;;;;;;;11.37;10.17;;;23.00;99.90;;;;;;4984805;28;20519;-71
2023/06/23 10:29:20;;;;;;;12.80;10.23;;;23.70;99.90;;;;;;4982402;28;20876;-72
2023/06/23 10:31:51;;;;;;;12.53;10.67;;;24.40;99.90;;;;;;4984055;28;20481;-72
2023/06/23 10:34:20;;;;;;;11.60;10.40;;;24.80;99.90;;;;;;4983111;28;20463;-73
2023/06/23 10:36:51;;;;;;;14.83;12.87;;;25.00;99.90;;;;;;4980456;28;20444;-71
2023/06/23 10:39:21;;;;;;;18.70;13.10;;;25.10;99.90;;;;;;4975890;28;20450;-70
2023/06/23 10:41:52;;;;;;;20.43;14.63;;;25.30;99.90;;;;;;4981599;28;20546;-71
2023/06/23 10:44:19;;;;;;;15.87;14.07;;;25.20;99.90;;;;;;4978778;28;20496;-72
2023/06/23 10:46:48;;;;;;;15.50;13.93;;;25.10;99.90;;;;;;4980930;28;20477;-71
2023/06/23 10:49:15;;;;;;;18.27;14.23;;;25.10;99.90;;;;;;4980663;28;20560;-73
2023/06/23 10:51:42;;;;;;;16.00;14.40;;;25.30;99.90;;;;;;4972529;28;20444;-72
2023/06/23 10:54:10;;;;;;;14.97;11.57;;;25.60;99.90;;;;;;4982007;28;20469;-71
2023/06/23 10:56:39;;;;;;;12.50;11.20;;;25.60;99.90;;;;;;4980368;28;20462;-70
2023/06/23 10:59:28;;;;;;;15.30;10.83;;;25.90;99.90;;;;;;4981183;28;20537;-70
2023/06/23 11:02:18;;;;;;;10.73;9.63;;;26.50;99.90;;;;;;4978511;28;20554;-70
2023/06/23 11:04:53;;;;;;;12.00;9.93;;;26.90;99.90;;;;;;4976042;28;20544;-70
2023/06/23 11:07:20;;;;;;;12.03;10.80;;;26.90;99.90;;;;;;4975458;28;20505;-71
2023/06/23 11:09:54;;;;;;;10.70;9.70;;;26.90;99.90;;;;;;4980498;28;20528;-69
2023/06/23 11:12:31;;;;;;;15.23;10.50;;;26.90;99.90;;;;;;4985068;28;20457;-72
2023/06/23 11:15:12;;;;;;;12.60;10.47;;;26.80;99.90;;;;;;4987198;28;20458;-72
2023/06/23 11:17:46;;;;;;;14.20;10.20;;;26.70;99.90;;;;;;4983862;28;20529;-73
2023/06/23 11:20:26;;;;;;;13.00;9.10;;;26.50;99.90;;;;;;4978895;28;20538;-70
2023/06/23 11:22:55;;;;;;;10.53;9.13;;;26.60;99.90;;;;;;4980685;28;20566;-71
2023/06/23 11:25:27;;;;;;;13.17;10.00;;;26.60;99.90;;;;;;4978433;28;20455;-70
2023/06/23 11:28:29;;;;;;;10.20;9.13;;;26.50;99.90;;;;;;4984449;28;20564;-71
2023/06/23 11:31:13;;;;;;;9.37;8.43;;;26.80;99.90;;;;;;4976065;28;20445;-72
2023/06/23 11:33:42;;;;;;;9.20;8.40;;;27.20;99.90;;;;;;4978140;28;20896;-72
2023/06/23 11:36:11;;;;;;;9.50;8.50;;;27.50;99.90;;;;;;4976625;28;20476;-72
2023/06/23 11:38:40;;;;;;;9.70;8.57;;;27.80;99.90;;;;;;4982256;28;20473;-74
2023/06/23 11:41:07;;;;;;;11.10;9.47;;;28.00;99.90;;;;;;4977898;28;20445;-72
2023/06/23 11:43:35;;;;;;;8.20;7.40;;;28.00;99.90;;;;;;4982450;28;20556;-73
2023/06/23 11:46:07;;;;;;;11.77;10.50;;;27.80;99.90;;;;;;4978970;28;20479;-70
2023/06/23 11:48:36;;;;;;;9.70;8.67;;;27.90;99.90;;;;;;4984440;28;20492;-73
2023/06/23 11:51:06;;;;;;;12.10;10.13;;;28.00;99.90;;;;;;4978630;28;20467;-72
2023/06/23 11:53:33;;;;;;;10.30;9.30;;;27.80;99.90;;;;;;4978391;28;20515;-70
2023/06/23 11:56:01;;;;;;;11.53;9.47;;;27.50;99.90;;;;;;4984117;28;20441;-72
2023/06/23 11:58:32;;;;;;;12.53;11.10;;;27.30;99.90;;;;;;4982671;28;20449;-72
2023/06/23 12:00:59;;;;;;;14.03;11.53;;;27.20;99.90;;;;;;4975400;28;20560;-71
2023/06/23 12:03:26;;;;;;;18.13;13.70;;;27.00;99.90;;;;;;4981501;28;20834;-72
2023/06/23 12:05:54;;;;;;;15.67;14.17;;;26.80;99.90;;;;;;4977150;28;20466;-71
2023/06/23 12:08:25;;;;;;;15.10;13.60;;;26.90;99.90;;;;;;4975827;28;20572;-72
2023/06/23 12:10:53;;;;;;;15.20;13.60;;;27.10;99.90;;;;;;4980863;28;20458;-70
2023/06/23 12:13:21;;;;;;;14.63;9.97;;;27.30;99.90;;;;;;4981341;28;20475;-71
2023/06/23 12:15:48;;;;;;;10.60;9.40;;;27.40;99.90;;;;;;4975472;28;20461;-71
2023/06/23 12:18:15;;;;;;;10.90;9.73;;;27.40;99.90;;;;;;4979729;28;20511;-71
2023/06/23 12:20:46;;;;;;;18.00;11.80;;;27.40;99.90;;;;;;4981074;28;20524;-72
2023/06/23 12:23:13;;;;;;;9.27;7.93;;;27.30;99.90;;;;;;4982992;28;20531;-70
2023/06/23 12:25:44;;;;;;;9.50;8.60;;;27.10;99.90;;;;;;4979047;28;20868;-71
2023/06/23 12:28:14;;;;;;;11.20;9.57;;;27.10;99.90;;;;;;4980036;28;20488;-72
2023/06/23 12:30:43;;;;;;;9.50;8.20;;;27.20;99.90;;;;;;4978651;28;20531;-72
2023/06/23 12:33:14;;;;;;;11.17;9.60;;;27.50;99.90;;;;;;4977581;28;20464;-72
2023/06/23 12:35:41;;;;;;;10.73;9.67;;;27.70;98.70;;;;;;4975345;28;20451;-71
2023/06/23 12:38:10;;;;;;;10.70;9.60;;;27.90;98.10;;;;;;4976602;28;20927;-71
2023/06/23 12:40:42;;;;;;;10.40;8.77;;;28.00;97.90;;;;;;4978117;28;20945;-70
2023/06/23 12:43:11;;;;;;;9.57;8.67;;;27.90;96.50;;;;;;4984749;28;20522;-71